sensor_id;sensor_type;location;lat;lon;timestamp;P1;durP1;ratioP1;P2;durP2;ratioP2
68319;SDS011;55168;51.120;17.024;2022-12-18T00:00:00;42.4;;;22.8;;
68319;SDS011;55168;51.120;17.024;2022-12-18T00:01:00;42.4;;;22.8;;
68319;SDS011;55168;51.120;17.024;2022-12-18T00:02:00;42.4;;;22.8;;
68319;SDS011;55168;51.120;17.024;2022-12-18T00:03:00;42.4;;;22.8;;
68319;SDS011;55168;51.120;17.024;2022-12-18T00:04:02;39.1;;;21.8;;
68319;SDS011;55168;51.120;17.024;2022-12-18T00:05:00;39.1;;;21.8;;
68319;SDS011;55168;51.120;17.024;2022-12-18T00:06:00;39.1;;;21.8;;
68319;SDS011;55168;51.120;17.024;2022-12-18T00:07:00;39.1;;;21.8;;
68319;SDS011;55168;51.120;17.024;2022-12-18T00:08:00;39.1;;;21.8;;
68319;SDS011;55168;51.120;17.024;2022-12-18T00:09:00;43.5;;;21.3;;
68319;SDS011;55168;51.120;17.024;2022-12-18T00:10:00;43.5;;;21.3;;
68319;SDS011;55168;51.120;17.024;2022-12-18T00:11:04;43.5;;;21.3;;
68319;SDS011;55168;51.120;17.024;2022-12-18T00:12:00;43.5;;;21.3;;
68319;SDS011;55168;51.120;17.024;2022-12-18T00:13:00;43.5;;;21.3;;
68319;SDS011;55168;51.120;17.024;2022-12-18T00:14:00;44.5;;;22.0;;
68319;SDS011;55168;51.120;17.024;2022-12-18T00:15:00;44.5;;;22.0;;
68319;SDS011;55168;51.120;17.024;2022-12-18T00:16:03;44.5;;;22.0;;
68319;SDS011;55168;51.120;17.024;2022-12-18T00:17:00;44.5;;;22.0;;
68319;SDS011;55168;51.120;17.024;2022-12-18T00:18:00;44.5;;;22.0;;
68319;SDS011;55168;51.120;17.024;2022-12-18T00:19:00;41.3;;;20.5;;
68319;SDS011;55168;51.120;17.024;2022-12-18T00:20:00;41.3;;;20.5;;
68319;SDS011;55168;51.120;17.024;2022-12-18T00:21:01;41.3;;;20.5;;
68319;SDS011;55168;51.120;17.024;2022-12-18T00:22:00;41.3;;;20.5;;
68319;SDS011;55168;51.120;17.024;2022-12-18T00:23:00;41.3;;;20.5;;
68319;SDS011;55168;51.120;17.024;2022-12-18T00:24:00;40.4;;;21.0;;
68319;SDS011;55168;51.120;17.024;2022-12-18T00:25:00;40.4;;;21.0;;
68319;SDS011;55168;51.120;17.024;2022-12-18T00:26:03;40.4;;;21.0;;
68319;SDS011;55168;51.120;17.024;2022-12-18T00:27:00;40.4;;;21.0;;
68319;SDS011;55168;51.120;17.024;2022-12-18T00:28:00;40.4;;;21.0;;
68319;SDS011;55168;51.120;17.024;2022-12-18T00:29:02;40.1;;;20.9;;
68319;SDS011;55168;51.120;17.024;2022-12-18T00:30:00;40.1;;;20.9;;
68319;SDS011;55168;51.120;17.024;2022-12-18T00:31:05;40.1;;;20.9;;
68319;SDS011;55168;51.120;17.024;2022-12-18T00:32:00;40.1;;;20.9;;
68319;SDS011;55168;51.120;17.024;2022-12-18T00:33:00;40.1;;;20.9;;
68319;SDS011;55168;51.120;17.024;2022-12-18T00:34:00;40.8;;;20.5;;
68319;SDS011;55168;51.120;17.024;2022-12-18T00:35:00;40.8;;;20.5;;
68319;SDS011;55168;51.120;17.024;2022-12-18T00:36:00;40.8;;;20.5;;
68319;SDS011;55168;51.120;17.024;2022-12-18T00:37:00;40.8;;;20.5;;
68319;SDS011;55168;51.120;17.024;2022-12-18T00:38:00;40.8;;;20.5;;
68319;SDS011;55168;51.120;17.024;2022-12-18T00:39:02;44.5;;;20.7;;
68319;SDS011;55168;51.120;17.024;2022-12-18T00:40:00;44.5;;;20.7;;
68319;SDS011;55168;51.120;17.024;2022-12-18T00:41:00;44.5;;;20.7;;
68319;SDS011;55168;51.120;17.024;2022-12-18T00:42:00;44.5;;;20.7;;
68319;SDS011;55168;51.120;17.024;2022-12-18T00:43:00;44.5;;;20.7;;
68319;SDS011;55168;51.120;17.024;2022-12-18T00:44:00;39.4;;;20.1;;
68319;SDS011;55168;51.120;17.024;2022-12-18T00:45:00;39.4;;;20.1;;
68319;SDS011;55168;51.120;17.024;2022-12-18T00:46:00;39.4;;;20.1;;
68319;SDS011;55168;51.120;17.024;2022-12-18T00:47:00;39.4;;;20.1;;
68319;SDS011;55168;51.120;17.024;2022-12-18T00:48:00;39.4;;;20.1;;
68319;SDS011;55168;51.120;17.024;2022-12-18T00:49:00;40.5;;;20.1;;
68319;SDS011;55168;51.120;17.024;2022-12-18T00:50:00;40.5;;;20.1;;
68319;SDS011;55168;51.120;17.024;2022-12-18T00:51:00;40.5;;;20.1;;
68319;SDS011;55168;51.120;17.024;2022-12-18T00:52:00;40.5;;;20.1;;
68319;SDS011;55168;51.120;17.024;2022-12-18T00:53:00;40.5;;;20.1;;
68319;SDS011;55168;51.120;17.024;2022-12-18T00:54:00;39.7;;;20.7;;
68319;SDS011;55168;51.120;17.024;2022-12-18T00:55:00;39.7;;;20.7;;
68319;SDS011;55168;51.120;17.024;2022-12-18T00:56:00;39.7;;;20.7;;
68319;SDS011;55168;51.120;17.024;2022-12-18T00:57:00;39.7;;;20.7;;
68319;SDS011;55168;51.120;17.024;2022-12-18T00:58:00;39.7;;;20.7;;
68319;SDS011;55168;51.120;17.024;2022-12-18T00:59:00;37.7;;;20.1;;
68319;SDS011;55168;51.120;17.024;2022-12-18T01:00:00;37.7;;;20.1;;
68319;SDS011;55168;51.120;17.024;2022-12-18T01:01:00;37.7;;;20.1;;
68319;SDS011;55168;51.120;17.024;2022-12-18T01:02:00;37.7;;;20.1;;
68319;SDS011;55168;51.120;17.024;2022-12-18T01:03:00;37.7;;;20.1;;
68319;SDS011;55168;51.120;17.024;2022-12-18T01:04:02;39.4;;;20.6;;
68319;SDS011;55168;51.120;17.024;2022-12-18T01:05:00;39.4;;;20.6;;
68319;SDS011;55168;51.120;17.024;2022-12-18T01:06:06;39.4;;;20.6;;
68319;SDS011;55168;51.120;17.024;2022-12-18T01:07:00;39.4;;;20.6;;
68319;SDS011;55168;51.120;17.024;2022-12-18T01:08:00;39.4;;;20.6;;
68319;SDS011;55168;51.120;17.024;2022-12-18T01:09:00;40.1;;;19.9;;
68319;SDS011;55168;51.120;17.024;2022-12-18T01:10:00;40.1;;;19.9;;
68319;SDS011;55168;51.120;17.024;2022-12-18T01:11:01;40.1;;;19.9;;
68319;SDS011;55168;51.120;17.024;2022-12-18T01:12:00;40.1;;;19.9;;
68319;SDS011;55168;51.120;17.024;2022-12-18T01:13:00;40.1;;;19.9;;
68319;SDS011;55168;51.120;17.024;2022-12-18T01:14:00;44.8;;;20.9;;
68319;SDS011;55168;51.120;17.024;2022-12-18T01:15:00;44.8;;;20.9;;
68319;SDS011;55168;51.120;17.024;2022-12-18T01:16:00;44.8;;;20.9;;
68319;SDS011;55168;51.120;17.024;2022-12-18T01:17:00;44.8;;;20.9;;
68319;SDS011;55168;51.120;17.024;2022-12-18T01:18:00;44.8;;;20.9;;
68319;SDS011;55168;51.120;17.024;2022-12-18T01:19:00;43.3;;;20.8;;
68319;SDS011;55168;51.120;17.024;2022-12-18T01:20:00;43.3;;;20.8;;
68319;SDS011;55168;51.120;17.024;2022-12-18T01:21:00;43.3;;;20.8;;
68319;SDS011;55168;51.120;17.024;2022-12-18T01:22:00;43.3;;;20.8;;
68319;SDS011;55168;51.120;17.024;2022-12-18T01:23:00;43.3;;;20.8;;
68319;SDS011;55168;51.120;17.024;2022-12-18T01:24:00;38.5;;;20.8;;
68319;SDS011;55168;51.120;17.024;2022-12-18T01:25:00;38.5;;;20.8;;
68319;SDS011;55168;51.120;17.024;2022-12-18T01:26:08;38.5;;;20.8;;
68319;SDS011;55168;51.120;17.024;2022-12-18T01:27:00;38.5;;;20.8;;
68319;SDS011;55168;51.120;17.024;2022-12-18T01:28:00;38.5;;;20.8;;
68319;SDS011;55168;51.120;17.024;2022-12-18T01:29:00;40.9;;;20.6;;
68319;SDS011;55168;51.120;17.024;2022-12-18T01:30:00;40.9;;;20.6;;
68319;SDS011;55168;51.120;17.024;2022-12-18T01:31:11;40.9;;;20.6;;
68319;SDS011;55168;51.120;17.024;2022-12-18T01:32:00;40.9;;;20.6;;
68319;SDS011;55168;51.120;17.024;2022-12-18T01:33:00;40.9;;;20.6;;
68319;SDS011;55168;51.120;17.024;2022-12-18T01:34:00;38.9;;;19.7;;
68319;SDS011;55168;51.120;17.024;2022-12-18T01:35:00;38.9;;;19.7;;
68319;SDS011;55168;51.120;17.024;2022-12-18T01:36:00;38.9;;;19.7;;
68319;SDS011;55168;51.120;17.024;2022-12-18T01:37:02;38.9;;;19.7;;
68319;SDS011;55168;51.120;17.024;2022-12-18T01:38:00;38.9;;;19.7;;
68319;SDS011;55168;51.120;17.024;2022-12-18T01:39:02;39.2;;;20.3;;
68319;SDS011;55168;51.120;17.024;2022-12-18T01:40:00;39.2;;;20.3;;
68319;SDS011;55168;51.120;17.024;2022-12-18T01:41:00;39.2;;;20.3;;
68319;SDS011;55168;51.120;17.024;2022-12-18T01:42:02;39.2;;;20.3;;
68319;SDS011;55168;51.120;17.024;2022-12-18T01:43:00;39.2;;;20.3;;
68319;SDS011;55168;51.120;17.024;2022-12-18T01:44:00;39.3;;;20.3;;
68319;SDS011;55168;51.120;17.024;2022-12-18T01:46:00;39.3;;;20.3;;
68319;SDS011;55168;51.120;17.024;2022-12-18T01:47:00;39.3;;;20.3;;
68319;SDS011;55168;51.120;17.024;2022-12-18T01:48:03;39.3;;;20.3;;
68319;SDS011;55168;51.120;17.024;2022-12-18T01:49:01;38.3;;;19.9;;
68319;SDS011;55168;51.120;17.024;2022-12-18T01:50:04;38.3;;;19.9;;
68319;SDS011;55168;51.120;17.024;2022-12-18T01:51:00;38.3;;;19.9;;
68319;SDS011;55168;51.120;17.024;2022-12-18T01:52:00;38.3;;;19.9;;
68319;SDS011;55168;51.120;17.024;2022-12-18T01:53:07;38.3;;;19.9;;
68319;SDS011;55168;51.120;17.024;2022-12-18T01:54:00;37.0;;;20.0;;
68319;SDS011;55168;51.120;17.024;2022-12-18T01:55:02;37.0;;;20.0;;
68319;SDS011;55168;51.120;17.024;2022-12-18T01:56:00;37.0;;;20.0;;
68319;SDS011;55168;51.120;17.024;2022-12-18T01:57:00;37.0;;;20.0;;
68319;SDS011;55168;51.120;17.024;2022-12-18T01:58:00;37.0;;;20.0;;
68319;SDS011;55168;51.120;17.024;2022-12-18T01:59:02;36.5;;;19.1;;
68319;SDS011;55168;51.120;17.024;2022-12-18T02:00:07;36.5;;;19.1;;
68319;SDS011;55168;51.120;17.024;2022-12-18T02:01:00;36.5;;;19.1;;
68319;SDS011;55168;51.120;17.024;2022-12-18T02:02:00;36.5;;;19.1;;
68319;SDS011;55168;51.120;17.024;2022-12-18T02:03:00;36.5;;;19.1;;
68319;SDS011;55168;51.120;17.024;2022-12-18T02:04:18;39.0;;;18.8;;
68319;SDS011;55168;51.120;17.024;2022-12-18T02:05:00;39.0;;;18.8;;
68319;SDS011;55168;51.120;17.024;2022-12-18T02:06:12;39.0;;;18.8;;
68319;SDS011;55168;51.120;17.024;2022-12-18T02:07:07;39.0;;;18.8;;
68319;SDS011;55168;51.120;17.024;2022-12-18T02:08:11;37.1;;;19.3;;
68319;SDS011;55168;51.120;17.024;2022-12-18T02:10:11;37.1;;;19.3;;
68319;SDS011;55168;51.120;17.024;2022-12-18T02:11:15;37.1;;;19.3;;
68319;SDS011;55168;51.120;17.024;2022-12-18T02:12:28;37.1;;;19.3;;
68319;SDS011;55168;51.120;17.024;2022-12-18T02:13:29;34.6;;;18.9;;
68319;SDS011;55168;51.120;17.024;2022-12-18T02:14:36;34.6;;;18.9;;
68319;SDS011;55168;51.120;17.024;2022-12-18T02:15:10;34.6;;;18.9;;
68319;SDS011;55168;51.120;17.024;2022-12-18T02:16:09;34.6;;;18.9;;
68319;SDS011;55168;51.120;17.024;2022-12-18T02:17:11;34.6;;;18.9;;
68319;SDS011;55168;51.120;17.024;2022-12-18T02:18:08;35.8;;;19.6;;
68319;SDS011;55168;51.120;17.024;2022-12-18T02:19:06;35.8;;;19.6;;
68319;SDS011;55168;51.120;17.024;2022-12-18T02:23:06;36.4;;;18.9;;
68319;SDS011;55168;51.120;17.024;2022-12-18T02:26:13;36.4;;;18.9;;
68319;SDS011;55168;51.120;17.024;2022-12-18T02:27:03;36.4;;;18.9;;
68319;SDS011;55168;51.120;17.024;2022-12-18T02:28:02;39.4;;;20.0;;
68319;SDS011;55168;51.120;17.024;2022-12-18T02:29:04;39.4;;;20.0;;
68319;SDS011;55168;51.120;17.024;2022-12-18T02:30:01;39.4;;;20.0;;
68319;SDS011;55168;51.120;17.024;2022-12-18T02:31:03;39.4;;;20.0;;
68319;SDS011;55168;51.120;17.024;2022-12-18T02:32:00;39.4;;;20.0;;
68319;SDS011;55168;51.120;17.024;2022-12-18T02:33:01;36.4;;;19.9;;
68319;SDS011;55168;51.120;17.024;2022-12-18T02:34:02;36.4;;;19.9;;
68319;SDS011;55168;51.120;17.024;2022-12-18T02:35:02;36.4;;;19.9;;
68319;SDS011;55168;51.120;17.024;2022-12-18T02:36:01;36.4;;;19.9;;
68319;SDS011;55168;51.120;17.024;2022-12-18T02:37:02;36.4;;;19.9;;
68319;SDS011;55168;51.120;17.024;2022-12-18T02:38:00;33.6;;;18.9;;
68319;SDS011;55168;51.120;17.024;2022-12-18T02:39:01;33.6;;;18.9;;
68319;SDS011;55168;51.120;17.024;2022-12-18T02:40:00;33.6;;;18.9;;
68319;SDS011;55168;51.120;17.024;2022-12-18T02:41:00;33.6;;;18.9;;
68319;SDS011;55168;51.120;17.024;2022-12-18T02:42:00;33.6;;;18.9;;
68319;SDS011;55168;51.120;17.024;2022-12-18T02:43:08;36.9;;;19.8;;
68319;SDS011;55168;51.120;17.024;2022-12-18T02:44:01;36.9;;;19.8;;
68319;SDS011;55168;51.120;17.024;2022-12-18T02:45:00;36.9;;;19.8;;
68319;SDS011;55168;51.120;17.024;2022-12-18T02:47:00;36.9;;;19.8;;
68319;SDS011;55168;51.120;17.024;2022-12-18T02:48:00;37.0;;;19.3;;
68319;SDS011;55168;51.120;17.024;2022-12-18T02:49:06;37.0;;;19.3;;
68319;SDS011;55168;51.120;17.024;2022-12-18T02:51:15;37.0;;;19.3;;
68319;SDS011;55168;51.120;17.024;2022-12-18T02:52:31;37.0;;;19.3;;
68319;SDS011;55168;51.120;17.024;2022-12-18T02:53:09;38.8;;;20.2;;
68319;SDS011;55168;51.120;17.024;2022-12-18T02:54:09;38.8;;;20.2;;
68319;SDS011;55168;51.120;17.024;2022-12-18T02:55:08;38.8;;;20.2;;
68319;SDS011;55168;51.120;17.024;2022-12-18T02:56:07;38.8;;;20.2;;
68319;SDS011;55168;51.120;17.024;2022-12-18T02:57:08;38.8;;;20.2;;
68319;SDS011;55168;51.120;17.024;2022-12-18T02:58:05;36.9;;;18.8;;
68319;SDS011;55168;51.120;17.024;2022-12-18T02:59:03;36.9;;;18.8;;
68319;SDS011;55168;51.120;17.024;2022-12-18T03:01:13;36.9;;;18.8;;
68319;SDS011;55168;51.120;17.024;2022-12-18T03:02:06;36.9;;;18.8;;
68319;SDS011;55168;51.120;17.024;2022-12-18T03:03:05;39.8;;;20.3;;
68319;SDS011;55168;51.120;17.024;2022-12-18T03:04:06;39.8;;;20.3;;
68319;SDS011;55168;51.120;17.024;2022-12-18T03:05:07;39.8;;;20.3;;
68319;SDS011;55168;51.120;17.024;2022-12-18T03:06:05;39.8;;;20.3;;
68319;SDS011;55168;51.120;17.024;2022-12-18T03:07:03;39.8;;;20.3;;
68319;SDS011;55168;51.120;17.024;2022-12-18T03:08:12;38.6;;;20.4;;
68319;SDS011;55168;51.120;17.024;2022-12-18T03:09:02;38.6;;;20.4;;
68319;SDS011;55168;51.120;17.024;2022-12-18T03:10:00;38.6;;;20.4;;
68319;SDS011;55168;51.120;17.024;2022-12-18T03:11:03;38.6;;;20.4;;
68319;SDS011;55168;51.120;17.024;2022-12-18T03:12:15;38.6;;;20.4;;
68319;SDS011;55168;51.120;17.024;2022-12-18T03:13:05;36.7;;;19.5;;
68319;SDS011;55168;51.120;17.024;2022-12-18T03:14:00;36.7;;;19.5;;
68319;SDS011;55168;51.120;17.024;2022-12-18T03:15:06;36.7;;;19.5;;
68319;SDS011;55168;51.120;17.024;2022-12-18T03:16:01;36.7;;;19.5;;
68319;SDS011;55168;51.120;17.024;2022-12-18T03:17:05;36.7;;;19.5;;
68319;SDS011;55168;51.120;17.024;2022-12-18T03:18:07;36.5;;;19.9;;
68319;SDS011;55168;51.120;17.024;2022-12-18T03:19:04;36.5;;;19.9;;
68319;SDS011;55168;51.120;17.024;2022-12-18T03:20:12;36.5;;;19.9;;
68319;SDS011;55168;51.120;17.024;2022-12-18T03:21:04;36.5;;;19.9;;
68319;SDS011;55168;51.120;17.024;2022-12-18T03:22:02;36.5;;;19.9;;
68319;SDS011;55168;51.120;17.024;2022-12-18T03:23:07;33.9;;;19.0;;
68319;SDS011;55168;51.120;17.024;2022-12-18T03:24:01;33.9;;;19.0;;
68319;SDS011;55168;51.120;17.024;2022-12-18T03:25:03;33.9;;;19.0;;
68319;SDS011;55168;51.120;17.024;2022-12-18T03:26:06;33.9;;;19.0;;
68319;SDS011;55168;51.120;17.024;2022-12-18T03:27:02;33.9;;;19.0;;
68319;SDS011;55168;51.120;17.024;2022-12-18T03:28:01;32.9;;;19.1;;
68319;SDS011;55168;51.120;17.024;2022-12-18T03:29:04;32.9;;;19.1;;
68319;SDS011;55168;51.120;17.024;2022-12-18T03:30:03;32.9;;;19.1;;
68319;SDS011;55168;51.120;17.024;2022-12-18T03:31:00;32.9;;;19.1;;
68319;SDS011;55168;51.120;17.024;2022-12-18T03:32:08;32.9;;;19.1;;
68319;SDS011;55168;51.120;17.024;2022-12-18T03:33:05;38.5;;;20.2;;
68319;SDS011;55168;51.120;17.024;2022-12-18T03:34:04;38.5;;;20.2;;
68319;SDS011;55168;51.120;17.024;2022-12-18T03:35:05;38.5;;;20.2;;
68319;SDS011;55168;51.120;17.024;2022-12-18T03:36:00;38.5;;;20.2;;
68319;SDS011;55168;51.120;17.024;2022-12-18T03:37:01;38.5;;;20.2;;
68319;SDS011;55168;51.120;17.024;2022-12-18T03:38:00;33.4;;;19.0;;
68319;SDS011;55168;51.120;17.024;2022-12-18T03:39:00;33.4;;;19.0;;
68319;SDS011;55168;51.120;17.024;2022-12-18T03:40:00;33.4;;;19.0;;
68319;SDS011;55168;51.120;17.024;2022-12-18T03:41:06;33.4;;;19.0;;
68319;SDS011;55168;51.120;17.024;2022-12-18T03:42:05;33.4;;;19.0;;
68319;SDS011;55168;51.120;17.024;2022-12-18T03:43:19;40.1;;;20.6;;
68319;SDS011;55168;51.120;17.024;2022-12-18T03:44:10;40.1;;;20.6;;
68319;SDS011;55168;51.120;17.024;2022-12-18T03:45:06;40.1;;;20.6;;
68319;SDS011;55168;51.120;17.024;2022-12-18T03:46:07;40.1;;;20.6;;
68319;SDS011;55168;51.120;17.024;2022-12-18T03:47:07;40.1;;;20.6;;
68319;SDS011;55168;51.120;17.024;2022-12-18T03:49:08;36.4;;;20.0;;
68319;SDS011;55168;51.120;17.024;2022-12-18T03:50:10;36.4;;;20.0;;
68319;SDS011;55168;51.120;17.024;2022-12-18T03:51:05;36.4;;;20.0;;
68319;SDS011;55168;51.120;17.024;2022-12-18T03:52:06;36.4;;;20.0;;
68319;SDS011;55168;51.120;17.024;2022-12-18T03:53:09;35.8;;;19.9;;
68319;SDS011;55168;51.120;17.024;2022-12-18T03:54:02;35.8;;;19.9;;
68319;SDS011;55168;51.120;17.024;2022-12-18T03:55:01;35.8;;;19.9;;
68319;SDS011;55168;51.120;17.024;2022-12-18T03:56:00;35.8;;;19.9;;
68319;SDS011;55168;51.120;17.024;2022-12-18T03:57:10;35.8;;;19.9;;
68319;SDS011;55168;51.120;17.024;2022-12-18T03:58:01;31.7;;;19.2;;
68319;SDS011;55168;51.120;17.024;2022-12-18T03:59:01;31.7;;;19.2;;
68319;SDS011;55168;51.120;17.024;2022-12-18T04:00:04;31.7;;;19.2;;
68319;SDS011;55168;51.120;17.024;2022-12-18T04:01:02;31.7;;;19.2;;
68319;SDS011;55168;51.120;17.024;2022-12-18T04:02:01;31.7;;;19.2;;
68319;SDS011;55168;51.120;17.024;2022-12-18T04:03:01;33.6;;;17.2;;
68319;SDS011;55168;51.120;17.024;2022-12-18T04:04:01;33.6;;;17.2;;
68319;SDS011;55168;51.120;17.024;2022-12-18T04:05:03;33.6;;;17.2;;
68319;SDS011;55168;51.120;17.024;2022-12-18T04:06:00;33.6;;;17.2;;
68319;SDS011;55168;51.120;17.024;2022-12-18T04:07:00;33.6;;;17.2;;
68319;SDS011;55168;51.120;17.024;2022-12-18T04:08:00;36.6;;;19.3;;
68319;SDS011;55168;51.120;17.024;2022-12-18T04:09:00;36.6;;;19.3;;
68319;SDS011;55168;51.120;17.024;2022-12-18T04:10:01;36.6;;;19.3;;
68319;SDS011;55168;51.120;17.024;2022-12-18T04:11:00;36.6;;;19.3;;
68319;SDS011;55168;51.120;17.024;2022-12-18T04:12:00;36.6;;;19.3;;
68319;SDS011;55168;51.120;17.024;2022-12-18T04:13:00;38.8;;;20.1;;
68319;SDS011;55168;51.120;17.024;2022-12-18T04:14:00;38.8;;;20.1;;
68319;SDS011;55168;51.120;17.024;2022-12-18T04:15:00;38.8;;;20.1;;
68319;SDS011;55168;51.120;17.024;2022-12-18T04:16:00;38.8;;;20.1;;
68319;SDS011;55168;51.120;17.024;2022-12-18T04:17:00;38.8;;;20.1;;
68319;SDS011;55168;51.120;17.024;2022-12-18T04:18:00;37.7;;;19.8;;
68319;SDS011;55168;51.120;17.024;2022-12-18T04:19:00;37.7;;;19.8;;
68319;SDS011;55168;51.120;17.024;2022-12-18T04:20:00;37.7;;;19.8;;
68319;SDS011;55168;51.120;17.024;2022-12-18T04:21:00;37.7;;;19.8;;
68319;SDS011;55168;51.120;17.024;2022-12-18T04:22:00;37.7;;;19.8;;
68319;SDS011;55168;51.120;17.024;2022-12-18T04:23:00;35.1;;;18.6;;
68319;SDS011;55168;51.120;17.024;2022-12-18T04:24:00;35.1;;;18.6;;
68319;SDS011;55168;51.120;17.024;2022-12-18T04:25:00;35.1;;;18.6;;
68319;SDS011;55168;51.120;17.024;2022-12-18T04:26:00;35.1;;;18.6;;
68319;SDS011;55168;51.120;17.024;2022-12-18T04:27:00;35.1;;;18.6;;
68319;SDS011;55168;51.120;17.024;2022-12-18T04:28:00;32.0;;;18.2;;
68319;SDS011;55168;51.120;17.024;2022-12-18T04:29:00;32.0;;;18.2;;
68319;SDS011;55168;51.120;17.024;2022-12-18T04:30:00;32.0;;;18.2;;
68319;SDS011;55168;51.120;17.024;2022-12-18T04:31:00;32.0;;;18.2;;
68319;SDS011;55168;51.120;17.024;2022-12-18T04:32:00;32.0;;;18.2;;
68319;SDS011;55168;51.120;17.024;2022-12-18T04:33:00;36.1;;;19.9;;
68319;SDS011;55168;51.120;17.024;2022-12-18T04:34:00;36.1;;;19.9;;
68319;SDS011;55168;51.120;17.024;2022-12-18T04:35:00;36.1;;;19.9;;
68319;SDS011;55168;51.120;17.024;2022-12-18T04:36:00;36.1;;;19.9;;
68319;SDS011;55168;51.120;17.024;2022-12-18T04:37:00;36.1;;;19.9;;
68319;SDS011;55168;51.120;17.024;2022-12-18T04:38:00;36.9;;;20.6;;
68319;SDS011;55168;51.120;17.024;2022-12-18T04:39:00;36.9;;;20.6;;
68319;SDS011;55168;51.120;17.024;2022-12-18T04:40:00;36.9;;;20.6;;
68319;SDS011;55168;51.120;17.024;2022-12-18T04:41:00;36.9;;;20.6;;
68319;SDS011;55168;51.120;17.024;2022-12-18T04:42:00;36.9;;;20.6;;
68319;SDS011;55168;51.120;17.024;2022-12-18T04:43:00;32.2;;;18.6;;
68319;SDS011;55168;51.120;17.024;2022-12-18T04:44:00;32.2;;;18.6;;
68319;SDS011;55168;51.120;17.024;2022-12-18T04:45:00;32.2;;;18.6;;
68319;SDS011;55168;51.120;17.024;2022-12-18T04:46:02;32.2;;;18.6;;
68319;SDS011;55168;51.120;17.024;2022-12-18T04:47:00;32.2;;;18.6;;
68319;SDS011;55168;51.120;17.024;2022-12-18T04:48:01;35.3;;;18.6;;
68319;SDS011;55168;51.120;17.024;2022-12-18T04:49:00;35.3;;;18.6;;
68319;SDS011;55168;51.120;17.024;2022-12-18T04:50:00;35.3;;;18.6;;
68319;SDS011;55168;51.120;17.024;2022-12-18T04:51:00;35.3;;;18.6;;
68319;SDS011;55168;51.120;17.024;2022-12-18T04:52:00;35.3;;;18.6;;
68319;SDS011;55168;51.120;17.024;2022-12-18T04:53:00;35.0;;;19.0;;
68319;SDS011;55168;51.120;17.024;2022-12-18T04:54:00;35.0;;;19.0;;
68319;SDS011;55168;51.120;17.024;2022-12-18T04:55:00;35.0;;;19.0;;
68319;SDS011;55168;51.120;17.024;2022-12-18T04:56:11;35.0;;;19.0;;
68319;SDS011;55168;51.120;17.024;2022-12-18T04:57:00;35.0;;;19.0;;
68319;SDS011;55168;51.120;17.024;2022-12-18T04:58:00;37.5;;;19.7;;
68319;SDS011;55168;51.120;17.024;2022-12-18T04:59:00;37.5;;;19.7;;
68319;SDS011;55168;51.120;17.024;2022-12-18T05:00:00;37.5;;;19.7;;
68319;SDS011;55168;51.120;17.024;2022-12-18T05:01:00;37.5;;;19.7;;
68319;SDS011;55168;51.120;17.024;2022-12-18T05:02:00;37.5;;;19.7;;
68319;SDS011;55168;51.120;17.024;2022-12-18T05:03:01;35.2;;;18.1;;
68319;SDS011;55168;51.120;17.024;2022-12-18T05:04:00;35.2;;;18.1;;
68319;SDS011;55168;51.120;17.024;2022-12-18T05:05:00;35.2;;;18.1;;
68319;SDS011;55168;51.120;17.024;2022-12-18T05:06:00;35.2;;;18.1;;
68319;SDS011;55168;51.120;17.024;2022-12-18T05:07:00;35.2;;;18.1;;
68319;SDS011;55168;51.120;17.024;2022-12-18T05:08:00;35.0;;;19.9;;
68319;SDS011;55168;51.120;17.024;2022-12-18T05:09:00;35.0;;;19.9;;
68319;SDS011;55168;51.120;17.024;2022-12-18T05:10:00;35.0;;;19.9;;
68319;SDS011;55168;51.120;17.024;2022-12-18T05:11:08;35.0;;;19.9;;
68319;SDS011;55168;51.120;17.024;2022-12-18T05:12:00;35.0;;;19.9;;
68319;SDS011;55168;51.120;17.024;2022-12-18T05:13:00;38.9;;;21.2;;
68319;SDS011;55168;51.120;17.024;2022-12-18T05:14:00;38.9;;;21.2;;
68319;SDS011;55168;51.120;17.024;2022-12-18T05:15:00;38.9;;;21.2;;
68319;SDS011;55168;51.120;17.024;2022-12-18T05:16:00;38.9;;;21.2;;
68319;SDS011;55168;51.120;17.024;2022-12-18T05:17:00;38.9;;;21.2;;
68319;SDS011;55168;51.120;17.024;2022-12-18T05:18:00;37.8;;;19.9;;
68319;SDS011;55168;51.120;17.024;2022-12-18T05:19:00;37.8;;;19.9;;
68319;SDS011;55168;51.120;17.024;2022-12-18T05:20:00;37.8;;;19.9;;
68319;SDS011;55168;51.120;17.024;2022-12-18T05:21:00;37.8;;;19.9;;
68319;SDS011;55168;51.120;17.024;2022-12-18T05:22:00;37.8;;;19.9;;
68319;SDS011;55168;51.120;17.024;2022-12-18T05:23:00;36.7;;;20.1;;
68319;SDS011;55168;51.120;17.024;2022-12-18T05:24:00;36.7;;;20.1;;
68319;SDS011;55168;51.120;17.024;2022-12-18T05:25:00;36.7;;;20.1;;
68319;SDS011;55168;51.120;17.024;2022-12-18T05:26:03;36.7;;;20.1;;
68319;SDS011;55168;51.120;17.024;2022-12-18T05:27:00;36.7;;;20.1;;
68319;SDS011;55168;51.120;17.024;2022-12-18T05:28:00;34.6;;;18.1;;
68319;SDS011;55168;51.120;17.024;2022-12-18T05:29:00;34.6;;;18.1;;
68319;SDS011;55168;51.120;17.024;2022-12-18T05:30:00;34.6;;;18.1;;
68319;SDS011;55168;51.120;17.024;2022-12-18T05:31:01;34.6;;;18.1;;
68319;SDS011;55168;51.120;17.024;2022-12-18T05:32:00;34.6;;;18.1;;
68319;SDS011;55168;51.120;17.024;2022-12-18T05:33:00;34.8;;;18.3;;
68319;SDS011;55168;51.120;17.024;2022-12-18T05:34:00;34.8;;;18.3;;
68319;SDS011;55168;51.120;17.024;2022-12-18T05:35:00;34.8;;;18.3;;
68319;SDS011;55168;51.120;17.024;2022-12-18T05:36:01;34.8;;;18.3;;
68319;SDS011;55168;51.120;17.024;2022-12-18T05:37:00;34.8;;;18.3;;
68319;SDS011;55168;51.120;17.024;2022-12-18T05:38:00;34.7;;;19.4;;
68319;SDS011;55168;51.120;17.024;2022-12-18T05:39:00;34.7;;;19.4;;
68319;SDS011;55168;51.120;17.024;2022-12-18T05:40:00;34.7;;;19.4;;
68319;SDS011;55168;51.120;17.024;2022-12-18T05:41:00;34.7;;;19.4;;
68319;SDS011;55168;51.120;17.024;2022-12-18T05:42:00;34.7;;;19.4;;
68319;SDS011;55168;51.120;17.024;2022-12-18T05:43:00;37.9;;;20.0;;
68319;SDS011;55168;51.120;17.024;2022-12-18T05:44:00;37.9;;;20.0;;
68319;SDS011;55168;51.120;17.024;2022-12-18T05:45:00;37.9;;;20.0;;
68319;SDS011;55168;51.120;17.024;2022-12-18T05:46:03;37.9;;;20.0;;
68319;SDS011;55168;51.120;17.024;2022-12-18T05:47:00;37.9;;;20.0;;
68319;SDS011;55168;51.120;17.024;2022-12-18T05:48:00;36.3;;;19.2;;
68319;SDS011;55168;51.120;17.024;2022-12-18T05:49:00;36.3;;;19.2;;
68319;SDS011;55168;51.120;17.024;2022-12-18T05:50:00;36.3;;;19.2;;
68319;SDS011;55168;51.120;17.024;2022-12-18T05:51:05;36.3;;;19.2;;
68319;SDS011;55168;51.120;17.024;2022-12-18T05:52:00;36.3;;;19.2;;
68319;SDS011;55168;51.120;17.024;2022-12-18T05:53:00;36.5;;;19.9;;
68319;SDS011;55168;51.120;17.024;2022-12-18T05:54:00;36.5;;;19.9;;
68319;SDS011;55168;51.120;17.024;2022-12-18T05:55:00;36.5;;;19.9;;
68319;SDS011;55168;51.120;17.024;2022-12-18T05:56:00;36.5;;;19.9;;
68319;SDS011;55168;51.120;17.024;2022-12-18T05:57:00;36.5;;;19.9;;
68319;SDS011;55168;51.120;17.024;2022-12-18T05:58:00;32.9;;;18.8;;
68319;SDS011;55168;51.120;17.024;2022-12-18T05:59:00;32.9;;;18.8;;
68319;SDS011;55168;51.120;17.024;2022-12-18T06:00:00;32.9;;;18.8;;
68319;SDS011;55168;51.120;17.024;2022-12-18T06:01:17;32.9;;;18.8;;
68319;SDS011;55168;51.120;17.024;2022-12-18T06:02:00;32.9;;;18.8;;
68319;SDS011;55168;51.120;17.024;2022-12-18T06:03:00;36.3;;;19.4;;
68319;SDS011;55168;51.120;17.024;2022-12-18T06:04:00;36.3;;;19.4;;
68319;SDS011;55168;51.120;17.024;2022-12-18T06:05:00;36.3;;;19.4;;
68319;SDS011;55168;51.120;17.024;2022-12-18T06:06:00;36.3;;;19.4;;